aviador You're here:

LFLY Decoded Metar

LYON BRON in FRANCE
Report Time2017-08-24 03:00:00
UTC Time2017-08-24 03:11:18
Flight Rules vfr VFR
WindCalm
Visibility9999 m
Phenomena:N/A
Clouds:N/A
Expected CloudBase > 2,000 ft AGL from Temp-Dew spread
CeilingNone
Temp22°C (ISA +8)
Dew Point17°C (73% RH)
QNH1017 hPa
Density Alt1,752 ft
Elevation659 ft
Report Wrong Elevation
Raw Report
LFLY 240300Z AUTO 00000KT CAVOK 22/17 Q1017 NOSIG=

Extra information for LFLY:More info

Metar Taf Metar & Taf Last 4 Metars F.Rules Stats Wind Profile Meteogram Temp Stats Airport Information Weather charts Add Link Nearby VenuesMetar ALERT Operation Metar Decoded Social comments